createdAt,value
2019-03-20T00:44:46.598Z,10.73
2019-03-20T00:47:28.048Z,9.90
2019-03-20T00:50:00.363Z,10.30
2019-03-20T00:52:31.548Z,9.60
2019-03-20T00:55:03.711Z,10.07
2019-03-20T00:57:37.686Z,9.40
2019-03-20T01:00:17.813Z,10.37
2019-03-20T01:02:55.317Z,9.03
2019-03-20T01:05:25.568Z,10.53
2019-03-20T01:07:56.187Z,9.30
2019-03-20T01:10:26.949Z,11.20
2019-03-20T01:13:08.037Z,10.30
2019-03-20T01:15:38.154Z,9.73
2019-03-20T01:18:08.317Z,9.63
2019-03-20T01:20:38.674Z,10.63
2019-03-20T01:23:09.009Z,9.67
2019-03-20T01:25:39.570Z,10.37
2019-03-20T01:28:10.077Z,10.27
2019-03-20T01:30:40.214Z,10.10
2019-03-20T01:33:11.444Z,9.93
2019-03-20T01:35:41.606Z,10.00
2019-03-20T01:38:11.972Z,10.57
2019-03-20T01:40:42.034Z,10.87
2019-03-20T01:43:12.346Z,10.30
2019-03-20T01:45:42.684Z,10.30
2019-03-20T01:48:12.706Z,10.07
2019-03-20T01:50:42.583Z,10.23
2019-03-20T01:53:12.604Z,10.23
2019-03-20T01:55:42.443Z,9.50
2019-03-20T01:58:12.291Z,11.17
2019-03-20T02:00:42.152Z,10.00
2019-03-20T02:03:11.831Z,9.73
2019-03-20T02:05:41.691Z,9.80
2019-03-20T02:08:11.462Z,10.67
2019-03-20T02:10:41.301Z,10.53
2019-03-20T02:13:11.013Z,10.80
2019-03-20T02:15:40.827Z,10.07
2019-03-20T02:18:10.640Z,9.60
2019-03-20T02:20:40.474Z,9.63
2019-03-20T02:23:10.364Z,10.40
2019-03-20T02:25:40.075Z,10.37
2019-03-20T02:28:09.812Z,9.80
2019-03-20T02:30:39.572Z,10.00
2019-03-20T02:33:09.193Z,10.53
2019-03-20T02:35:50.614Z,10.20
2019-03-20T02:38:10.058Z,9.43
2019-03-20T02:40:39.790Z,9.67
2019-03-20T02:43:09.519Z,9.93
2019-03-20T02:45:39.208Z,10.47
2019-03-20T02:48:08.863Z,9.73
2019-03-20T02:50:38.529Z,10.10
2019-03-20T02:53:08.255Z,9.43
2019-03-20T02:55:37.951Z,9.67
2019-03-20T02:58:07.677Z,9.40
2019-03-20T03:00:37.371Z,9.63
2019-03-20T03:03:07.022Z,9.37
2019-03-20T03:05:36.819Z,9.90
2019-03-20T03:08:06.577Z,9.80
2019-03-20T03:10:36.468Z,9.27
2019-03-20T03:13:06.263Z,9.60
2019-03-20T03:15:36.265Z,8.33
2019-03-20T03:18:06.288Z,9.77
2019-03-20T03:20:36.221Z,10.53
2019-03-20T03:23:06.060Z,9.93
2019-03-20T03:25:36.080Z,10.50
2019-03-20T03:28:06.043Z,10.07
2019-03-20T03:30:35.872Z,9.70
2019-03-20T03:33:05.808Z,9.80
2019-03-20T03:35:35.735Z,10.07
2019-03-20T03:38:05.488Z,9.80
2019-03-20T03:40:35.758Z,9.33
2019-03-20T03:43:05.780Z,10.17
2019-03-20T03:45:35.647Z,10.27
2019-03-20T03:48:05.484Z,10.00
2019-03-20T03:50:35.404Z,9.40
2019-03-20T03:53:05.311Z,9.43
2019-03-20T03:55:35.300Z,9.20
2019-03-20T03:58:05.283Z,9.10
2019-03-20T04:00:35.402Z,9.30
2019-03-20T04:03:05.320Z,9.80
2019-03-20T04:05:35.307Z,8.93
2019-03-20T04:08:05.241Z,9.73
2019-03-20T04:10:35.098Z,9.57
2019-03-20T04:13:04.947Z,9.77
2019-03-20T04:15:36.411Z,9.03
2019-03-20T04:18:06.418Z,10.43
2019-03-20T04:20:36.334Z,8.83
2019-03-20T04:23:06.332Z,8.93
2019-03-20T04:25:36.176Z,9.80
2019-03-20T04:28:06.096Z,9.80
2019-03-20T04:30:35.991Z,9.43
2019-03-20T04:33:06.235Z,9.67
2019-03-20T04:35:36.102Z,9.40
2019-03-20T04:38:06.085Z,9.37
2019-03-20T04:40:36.139Z,8.80
2019-03-20T04:43:09.385Z,10.30
2019-03-20T04:45:41.758Z,8.67
2019-03-20T04:48:11.699Z,8.50
2019-03-20T04:50:41.526Z,9.00
2019-03-20T04:53:11.039Z,9.63
2019-03-20T04:55:43.431Z,8.53
2019-03-20T04:58:13.019Z,8.93
2019-03-20T05:00:42.656Z,9.97
2019-03-20T05:03:14.840Z,8.87
2019-03-20T05:06:08.179Z,9.87
2019-03-20T05:08:37.750Z,10.37
2019-03-20T05:11:07.884Z,9.87
2019-03-20T05:13:38.435Z,9.40
2019-03-20T05:16:08.942Z,10.17
2019-03-20T05:18:38.572Z,10.37
2019-03-20T05:21:07.959Z,10.20
2019-03-20T05:23:37.519Z,9.90
2019-03-20T05:26:07.328Z,9.37
2019-03-20T05:28:36.915Z,9.67
2019-03-20T05:31:06.507Z,10.50
2019-03-20T05:33:36.228Z,9.63
2019-03-20T05:36:06.912Z,10.17
2019-03-20T05:38:36.558Z,9.03
2019-03-20T05:41:06.077Z,9.73
2019-03-20T05:43:40.796Z,9.10
2019-03-20T05:46:10.339Z,9.40
2019-03-20T05:48:39.859Z,11.20
2019-03-20T05:51:09.432Z,10.27
2019-03-20T05:53:39.139Z,10.57
2019-03-20T05:56:09.087Z,9.90
2019-03-20T05:58:38.854Z,11.43
2019-03-20T06:01:09.036Z,10.53
2019-03-20T06:03:38.764Z,10.47
2019-03-20T06:06:08.656Z,10.60
2019-03-20T06:08:38.909Z,12.07
2019-03-20T06:11:08.359Z,12.83
2019-03-20T06:13:37.706Z,11.80
2019-03-20T06:16:07.138Z,10.33
2019-03-20T06:18:36.480Z,11.60
2019-03-20T06:21:05.865Z,10.90
2019-03-20T06:23:35.229Z,10.67
2019-03-20T06:26:04.606Z,13.03
2019-03-20T06:28:34.078Z,12.07
2019-03-20T06:31:03.473Z,11.77
2019-03-20T06:33:32.876Z,12.27
2019-03-20T06:36:02.270Z,13.53
2019-03-20T06:38:31.671Z,12.40
2019-03-20T06:41:01.135Z,12.87
2019-03-20T06:43:30.521Z,13.03
2019-03-20T06:46:00.032Z,12.50
2019-03-20T06:48:29.423Z,12.97
2019-03-20T06:50:58.826Z,13.30
2019-03-20T06:53:28.200Z,12.63
2019-03-20T06:55:57.648Z,12.53
2019-03-20T06:58:27.028Z,13.37
2019-03-20T07:01:25.134Z,12.87
2019-03-20T07:04:11.924Z,10.80
2019-03-20T07:06:54.879Z,10.63
2019-03-20T07:09:31.158Z,11.57
2019-03-20T07:12:00.540Z,11.83
2019-03-20T07:14:29.919Z,11.63
2019-03-20T07:16:59.239Z,11.70
2019-03-20T07:19:28.628Z,12.10
2019-03-20T07:21:57.964Z,10.67
2019-03-20T07:24:27.333Z,11.77
2019-03-20T07:26:56.661Z,9.50
2019-03-20T07:29:26.066Z,10.20
2019-03-20T07:31:55.747Z,10.80
2019-03-20T07:34:25.135Z,9.73
2019-03-20T07:36:54.524Z,9.53
2019-03-20T07:39:24.034Z,10.13
2019-03-20T07:41:53.360Z,9.63
2019-03-20T07:44:22.753Z,9.10
2019-03-20T07:46:52.093Z,9.57
2019-03-20T07:49:21.443Z,8.53
2019-03-20T07:51:50.851Z,9.80
2019-03-20T07:54:20.252Z,8.90
2019-03-20T07:56:49.621Z,8.90
2019-03-20T07:59:19.021Z,8.97
2019-03-20T08:01:48.474Z,8.40
2019-03-20T08:04:17.845Z,8.70
2019-03-20T08:06:47.241Z,7.97
2019-03-20T08:09:16.611Z,7.80
2019-03-20T08:11:46.057Z,9.10
2019-03-20T08:14:15.413Z,7.57
2019-03-20T08:16:44.789Z,8.23
2019-03-20T08:19:14.130Z,8.47
2019-03-20T08:21:43.509Z,7.80
2019-03-20T08:24:12.860Z,8.73
2019-03-20T08:26:42.272Z,7.73
2019-03-20T08:29:11.637Z,7.87
2019-03-20T08:31:41.014Z,8.10
2019-03-20T08:34:10.505Z,7.50
2019-03-20T08:36:39.925Z,8.50
2019-03-20T08:39:09.262Z,9.30
2019-03-20T08:41:38.664Z,8.60
2019-03-20T08:44:08.017Z,10.07
2019-03-20T08:46:37.404Z,10.70
2019-03-20T08:49:06.765Z,9.20
2019-03-20T08:51:36.161Z,8.70
2019-03-20T08:54:05.623Z,10.80
2019-03-20T08:56:35.046Z,9.93
2019-03-20T08:59:04.409Z,11.23
2019-03-20T09:01:33.828Z,9.97
2019-03-20T09:04:03.195Z,9.43
2019-03-20T09:06:32.568Z,9.47
2019-03-20T09:09:01.923Z,9.30
2019-03-20T09:11:31.279Z,8.53
2019-03-20T09:14:00.643Z,9.57
2019-03-20T09:16:30.074Z,9.20
2019-03-20T09:18:59.452Z,10.20
2019-03-20T09:21:28.950Z,10.90
2019-03-20T09:23:58.493Z,11.30
2019-03-20T09:26:27.931Z,10.80
2019-03-20T09:28:57.328Z,11.20
2019-03-20T09:31:26.904Z,10.90
2019-03-20T09:33:56.572Z,11.10
2019-03-20T09:36:26.089Z,13.07
2019-03-20T09:38:55.628Z,13.20
2019-03-20T09:41:27.041Z,12.20
2019-03-20T09:43:56.859Z,13.83
2019-03-20T09:46:26.554Z,11.90
2019-03-20T09:48:56.201Z,13.93
2019-03-20T09:51:25.631Z,11.63
2019-03-20T09:53:55.031Z,12.80
2019-03-20T09:56:24.471Z,14.17
2019-03-20T09:58:53.878Z,13.73
2019-03-20T10:01:23.317Z,13.37
2019-03-20T10:03:52.726Z,12.67
2019-03-20T10:06:22.096Z,15.17
2019-03-20T10:08:54.253Z,15.10
2019-03-20T10:11:22.564Z,13.83
2019-03-20T10:13:52.013Z,14.27
2019-03-20T10:16:21.479Z,15.17
2019-03-20T10:18:50.811Z,15.77
2019-03-20T10:21:20.196Z,15.80
2019-03-20T10:23:49.541Z,13.63
2019-03-20T10:26:18.924Z,14.90
2019-03-20T10:28:48.317Z,14.87
2019-03-20T10:31:17.719Z,14.60
2019-03-20T10:33:47.179Z,14.33
2019-03-20T10:36:16.644Z,14.40
2019-03-20T10:38:48.602Z,13.60
2019-03-20T10:41:17.163Z,11.93
2019-03-20T10:43:46.514Z,13.40
2019-03-20T10:46:15.930Z,11.67
2019-03-20T10:48:45.332Z,10.23
2019-03-20T10:51:14.713Z,11.17
2019-03-20T10:53:44.157Z,10.37
2019-03-20T10:56:13.573Z,10.53
2019-03-20T10:58:43.018Z,10.03
2019-03-20T11:01:12.424Z,9.37
2019-03-20T11:03:41.774Z,9.43
2019-03-20T11:06:11.147Z,9.63
2019-03-20T11:08:40.500Z,9.20
2019-03-20T11:11:09.900Z,8.97
2019-03-20T11:13:39.309Z,9.03
2019-03-20T11:16:08.705Z,8.90
2019-03-20T11:18:38.094Z,9.27
2019-03-20T11:21:07.504Z,9.80
2019-03-20T11:23:36.914Z,7.93
2019-03-20T11:26:06.285Z,8.87
2019-03-20T11:28:35.701Z,8.97
2019-03-20T11:31:05.325Z,7.80
2019-03-20T11:33:34.700Z,8.40
2019-03-20T11:36:04.058Z,7.57
2019-03-20T11:38:33.464Z,9.47
2019-03-20T11:41:02.851Z,8.13
2019-03-20T11:43:32.249Z,7.83
2019-03-20T11:46:01.641Z,7.40
2019-03-20T11:48:33.338Z,6.73
2019-03-20T11:51:02.346Z,7.97
2019-03-20T11:53:31.740Z,7.47
2019-03-20T11:56:01.117Z,7.20
2019-03-20T11:58:30.520Z,8.17
2019-03-20T12:00:59.885Z,8.00
2019-03-20T12:03:29.287Z,8.03
2019-03-20T12:05:58.652Z,7.30
2019-03-20T12:08:28.092Z,6.80
2019-03-20T12:10:58.631Z,6.87
2019-03-20T12:13:28.190Z,6.90
2019-03-20T12:15:57.597Z,6.27
2019-03-20T12:18:26.995Z,6.37
2019-03-20T12:20:56.423Z,6.80
2019-03-20T12:23:25.784Z,6.23
2019-03-20T12:25:59.470Z,6.83
2019-03-20T12:28:34.014Z,6.23
2019-03-20T12:31:03.339Z,6.00
2019-03-20T12:33:32.722Z,6.47
2019-03-20T12:36:02.152Z,7.40
2019-03-20T12:38:31.766Z,6.77
2019-03-20T12:41:11.430Z,8.33
2019-03-20T12:43:40.918Z,7.03
2019-03-20T12:46:10.459Z,6.50
2019-03-20T12:48:39.941Z,7.17
2019-03-20T12:51:09.468Z,7.33
2019-03-20T12:53:39.062Z,7.53
2019-03-20T12:56:08.521Z,7.67
2019-03-20T12:58:37.947Z,7.53
2019-03-20T13:01:07.458Z,8.13
2019-03-20T13:03:36.856Z,7.80
2019-03-20T13:06:06.403Z,8.03
2019-03-20T13:08:35.804Z,7.77
2019-03-20T13:11:05.467Z,6.97
2019-03-20T13:13:34.858Z,7.97
2019-03-20T13:16:04.372Z,8.70
2019-03-20T13:18:33.745Z,7.97
2019-03-20T13:21:03.218Z,8.13
2019-03-20T13:23:33.036Z,8.40
2019-03-20T13:26:02.470Z,7.77
2019-03-20T13:28:31.830Z,8.30
2019-03-20T13:31:04.400Z,8.30
2019-03-20T13:33:33.783Z,11.17
2019-03-20T13:36:03.257Z,9.03
2019-03-20T13:38:32.754Z,8.20
2019-03-20T13:41:02.157Z,7.90
2019-03-20T13:43:31.662Z,8.43
2019-03-20T13:46:01.137Z,10.63
2019-03-20T13:48:30.617Z,9.27
2019-03-20T13:51:00.039Z,9.80
2019-03-20T13:53:29.449Z,8.40
2019-03-20T13:55:58.854Z,10.90
2019-03-20T13:58:28.320Z,10.17
2019-03-20T14:00:57.683Z,10.10
2019-03-20T14:03:27.186Z,9.73
2019-03-20T14:06:03.951Z,10.50
2019-03-20T14:08:33.403Z,9.43
2019-03-20T14:11:02.807Z,9.03
2019-03-20T14:13:32.368Z,9.90
2019-03-20T14:16:01.714Z,9.33
2019-03-20T14:18:31.120Z,8.90
2019-03-20T14:21:00.491Z,9.47
2019-03-20T14:23:29.919Z,9.13
2019-03-20T14:25:59.324Z,10.30
2019-03-20T14:28:28.744Z,9.20
2019-03-20T14:30:58.093Z,9.10
2019-03-20T14:33:27.527Z,8.93
2019-03-20T14:35:56.884Z,8.03
2019-03-20T14:38:26.279Z,7.90
2019-03-20T14:40:55.722Z,7.73
2019-03-20T14:43:25.106Z,8.57
2019-03-20T14:45:54.473Z,7.73
2019-03-20T14:48:23.875Z,9.97
2019-03-20T14:50:53.270Z,7.50
2019-03-20T14:53:22.733Z,8.40
2019-03-20T14:55:52.183Z,8.17
2019-03-20T14:58:21.617Z,9.10
2019-03-20T15:00:50.978Z,8.13
2019-03-20T15:03:20.363Z,9.03
2019-03-20T15:05:49.853Z,8.43
2019-03-20T15:08:19.245Z,7.70
2019-03-20T15:10:48.623Z,9.17
2019-03-20T15:13:18.031Z,8.17
2019-03-20T15:15:50.986Z,9.43
2019-03-20T15:18:20.355Z,8.57
2019-03-20T15:20:49.773Z,8.17
2019-03-20T15:23:19.160Z,8.83
2019-03-20T15:25:48.553Z,8.63
2019-03-20T15:28:17.954Z,7.67
2019-03-20T15:30:47.318Z,7.90
2019-03-20T15:33:16.705Z,8.27
2019-03-20T15:35:46.186Z,7.17
2019-03-20T15:38:15.581Z,10.00
2019-03-20T15:40:44.939Z,8.33
2019-03-20T15:43:15.639Z,9.00
2019-03-20T15:45:45.083Z,8.23
2019-03-20T15:48:14.493Z,8.47
2019-03-20T15:50:43.902Z,9.33
2019-03-20T15:53:13.309Z,7.37
2019-03-20T15:55:42.729Z,8.90
2019-03-20T15:58:12.180Z,8.10
2019-03-20T16:00:41.574Z,8.73
2019-03-20T16:03:13.397Z,9.60
2019-03-20T16:05:42.871Z,8.87
2019-03-20T16:08:12.373Z,9.60
2019-03-20T16:10:41.734Z,8.97
2019-03-20T16:13:11.163Z,9.37
2019-03-20T16:15:40.613Z,8.13
2019-03-20T16:18:10.186Z,8.30
2019-03-20T16:20:39.578Z,8.37
2019-03-20T16:23:08.952Z,9.63
2019-03-20T16:25:38.358Z,9.33
2019-03-20T16:28:07.756Z,8.87
2019-03-20T16:30:37.188Z,9.07
2019-03-20T16:33:06.540Z,8.80
2019-03-20T16:35:35.971Z,8.37
2019-03-20T16:38:07.046Z,7.80
2019-03-20T16:40:36.696Z,9.13
2019-03-20T16:43:06.274Z,9.70
2019-03-20T16:45:35.676Z,8.77
2019-03-20T16:48:05.449Z,9.47
2019-03-20T16:50:34.975Z,8.57
2019-03-20T16:53:04.608Z,8.37
2019-03-20T16:55:34.016Z,9.47
2019-03-20T16:58:03.433Z,8.70
2019-03-20T17:00:33.160Z,10.23
2019-03-20T17:03:02.679Z,12.40
2019-03-20T17:05:32.947Z,11.10
2019-03-20T17:08:02.503Z,11.67
2019-03-20T17:10:34.334Z,11.43
2019-03-20T17:13:04.272Z,10.07
2019-03-20T17:15:33.787Z,10.67
2019-03-20T17:18:03.257Z,10.30
2019-03-20T17:20:32.810Z,9.60
2019-03-20T17:23:02.297Z,9.07
2019-03-20T17:25:31.752Z,11.03
2019-03-20T17:28:01.158Z,11.13
2019-03-20T17:30:32.805Z,12.30
2019-03-20T17:33:02.490Z,11.90
2019-03-20T17:35:32.098Z,11.43
2019-03-20T17:38:01.732Z,11.67
2019-03-20T17:40:31.421Z,10.10
2019-03-20T17:43:01.086Z,9.27
2019-03-20T17:45:31.250Z,10.10
2019-03-20T17:48:00.825Z,9.40
2019-03-20T17:50:30.401Z,9.50
2019-03-20T17:53:00.022Z,8.97
2019-03-20T17:55:30.132Z,10.63
2019-03-20T17:58:01.186Z,11.27
2019-03-20T18:00:44.993Z,12.20
2019-03-20T18:03:20.361Z,13.43
2019-03-20T18:05:49.865Z,15.07
2019-03-20T18:08:19.630Z,15.43
2019-03-20T18:10:49.736Z,16.23
2019-03-20T18:13:19.691Z,16.97
2019-03-20T18:15:49.520Z,14.63
2019-03-20T18:18:19.696Z,13.00
2019-03-20T18:20:49.416Z,11.83
2019-03-20T18:23:22.992Z,12.00
2019-03-20T18:25:54.001Z,12.10
2019-03-20T18:31:23.155Z,12.67
2019-03-20T18:34:03.814Z,12.03
2019-03-20T18:36:39.444Z,13.23
2019-03-20T18:39:09.687Z,13.27
2019-03-20T18:41:39.624Z,12.87
2019-03-20T18:44:09.677Z,12.27
2019-03-20T18:46:39.374Z,11.40
2019-03-20T18:49:12.576Z,13.60
2019-03-20T18:51:42.610Z,12.60
2019-03-20T18:54:12.747Z,13.03
2019-03-20T18:56:46.980Z,12.47
2019-03-20T20:33:15.791Z,17.07
2019-03-20T20:35:45.297Z,17.13
2019-03-20T20:38:14.878Z,18.30
2019-03-20T20:40:44.597Z,15.90
2019-03-20T20:43:14.206Z,16.80
2019-03-20T20:45:43.839Z,17.27
2019-03-20T20:48:13.505Z,16.17
2019-03-20T20:50:43.035Z,17.47
2019-03-20T20:53:12.687Z,17.60
2019-03-20T20:55:42.318Z,15.93
2019-03-20T20:58:12.030Z,17.27
2019-03-20T21:00:41.662Z,17.57
2019-03-20T21:03:11.247Z,16.27
2019-03-20T21:05:40.818Z,17.43
2019-03-20T21:08:10.426Z,18.87
2019-03-20T21:10:40.040Z,16.80
2019-03-20T21:13:09.749Z,19.07
2019-03-20T21:15:44.542Z,17.27
2019-03-20T21:19:16.798Z,18.00
2019-03-20T21:22:42.501Z,17.87
2019-03-20T21:25:12.865Z,17.83
2019-03-20T21:28:21.854Z,19.13
2019-03-20T21:31:18.347Z,17.67
2019-03-20T21:34:15.950Z,18.57
2019-03-20T21:37:47.643Z,19.17
2019-03-20T21:40:19.092Z,20.13
2019-03-20T21:43:25.676Z,18.13
2019-03-20T21:46:45.029Z,18.27
2019-03-20T21:49:15.111Z,18.97
2019-03-20T21:51:45.081Z,20.07
2019-03-20T21:54:54.542Z,20.37
2019-03-20T21:58:02.715Z,20.37
2019-03-20T22:01:09.075Z,18.13
2019-03-20T22:03:39.310Z,19.80
2019-03-20T22:06:56.196Z,19.73
2019-03-20T22:10:11.326Z,22.33
2019-03-20T22:12:59.415Z,20.57
2019-03-20T22:15:44.471Z,21.20
2019-03-20T22:18:36.135Z,19.97
2019-03-20T22:21:37.455Z,21.53
2019-03-20T22:24:49.136Z,20.07
2019-03-20T22:28:02.636Z,23.73
2019-03-20T22:30:32.603Z,22.13
2019-03-20T22:33:37.931Z,23.17
2019-03-20T22:36:14.620Z,23.20
2019-03-20T22:39:24.781Z,23.10
2019-03-20T22:42:22.012Z,24.20
2019-03-20T22:45:02.269Z,23.20
2019-03-20T22:47:58.500Z,23.87
2019-03-20T22:50:44.531Z,24.97
2019-03-20T22:53:51.073Z,23.63
2019-03-20T22:57:02.910Z,25.50
2019-03-20T22:59:32.847Z,26.27
2019-03-20T23:02:19.355Z,26.87
2019-03-20T23:04:55.347Z,23.87
2019-03-20T23:07:25.333Z,26.20
2019-03-20T23:09:55.331Z,25.83
2019-03-20T23:12:25.419Z,26.70
2019-03-20T23:14:55.482Z,27.80
2019-03-20T23:17:25.450Z,26.20
2019-03-20T23:19:56.539Z,26.80
2019-03-20T23:22:26.484Z,29.30
2019-03-20T23:24:56.435Z,27.60
2019-03-20T23:27:31.045Z,27.17
2019-03-20T23:30:01.709Z,27.07
2019-03-20T23:32:32.021Z,28.40
2019-03-20T23:35:01.972Z,28.50
2019-03-20T23:37:31.913Z,27.70
2019-03-20T23:40:01.846Z,28.10
2019-03-20T23:42:31.875Z,27.90
2019-03-20T23:45:01.838Z,28.43
2019-03-20T23:48:01.232Z,28.33
2019-03-20T23:50:31.184Z,27.50
2019-03-20T23:53:01.276Z,26.47
2019-03-20T23:55:31.293Z,26.60
2019-03-20T23:58:01.302Z,25.17
